Time;durP1;ratioP1;P1;durP2;ratioP2;P2;SDS_P1;SDS_P2;PMS_P1;PMS_P2;Temp;Humidity;BMP_temperature;BMP_pressure;BME280_temperature;BME280_humidity;BME280_pressure;Samples;Min_cycle;Max_cycle;Signal;HPM_P1;HPM_P2
2021/01/19 00:00:01;;;;;;;;;;;;;;;;;;5079457;28;1082;-64
2021/01/19 00:02:27;;;;;;;;;;;;;;;;;;5090868;28;818;-65
2021/01/19 00:04:52;;;;;;;;;;;;;;;;;;5078346;28;1618;-65
2021/01/19 00:07:18;;;;;;;;;;;;;;;;;;5069689;28;1702;-65
2021/01/19 00:09:43;;;;;;;;;;;;;;;;;;5069087;28;1508;-65
2021/01/19 00:12:08;;;;;;;;;;;;;;;;;;5069751;28;1897;-64
2021/01/19 00:14:34;;;;;;;;;;;;;;;;;;5068480;28;1566;-65
2021/01/19 00:16:59;;;;;;;;;;;;;;;;;;5070344;28;1411;-64
2021/01/19 00:19:24;;;;;;;;;;;;;;;;;;5070017;28;1560;-65
2021/01/19 00:21:50;;;;;;;;;;;;;;;;;;5068842;28;1416;-64
2021/01/19 00:24:15;;;;;;;;;;;;;;;;;;5068860;28;1506;-64
2021/01/19 00:26:41;;;;;;;;;;;;;;;;;;5069338;28;1462;-64
2021/01/19 00:29:06;;;;;;;;;;;;;;;;;;5071312;28;1415;-65
2021/01/19 00:31:32;;;;;;;;;;;;;;;;;;5070797;28;1910;-64
2021/01/19 00:33:57;;;;;;;;;;;;;;;;;;5069018;28;1463;-64
2021/01/19 00:36:22;;;;;;;;;;;;;;;;;;5069014;28;1486;-64
2021/01/19 00:38:48;;;;;;;;;;;;;;;;;;5071189;28;1494;-65
2021/01/19 00:41:13;;;;;;;;;;;;;;;;;;5069136;28;1300;-64
2021/01/19 00:43:38;;;;;;;;;;;;;;;;;;5068586;28;1404;-64
2021/01/19 00:46:04;;;;;;;;;;;;;;;;;;5069635;28;1519;-65
2021/01/19 00:48:29;;;;;;;;;;;;;;;;;;5082464;28;2339;-64
2021/01/19 00:50:55;;;;;;;;;;;;;;;;;;5081690;28;1970;-64
2021/01/19 00:53:20;;;;;;;;;;;;;;;;;;5074152;28;1486;-64
2021/01/19 00:55:45;;;;;;;;;;;;;;;;;;5074004;28;1525;-64
2021/01/19 00:58:14;;;;;;;;;;;;;;;;;;5068556;28;1411;-64
2021/01/19 01:00:39;;;;;;;;;;;;;;;;;;5079609;28;1427;-65
2021/01/19 01:03:04;;;;;;;;;;;;;;;;;;5069353;28;1463;-64
2021/01/19 01:05:30;;;;;;;;;;;;;;;;;;5087976;28;1515;-64
2021/01/19 01:07:55;;;;;;;;;;;;;;;;;;5068690;28;1434;-64
2021/01/19 01:10:20;;;;;;;;;;;;;;;;;;5068544;28;1918;-65
2021/01/19 01:12:46;;;;;;;;;;;;;;;;;;5083162;28;1466;-65
2021/01/19 01:15:18;;;;;;;;;;;;;;;;;;5069638;28;1431;-66
2021/01/19 01:17:44;;;;;;;;;;;;;;;;;;5067701;28;1486;-64
2021/01/19 01:20:10;;;;;;;;;;;;;;;;;;5067357;28;1531;-64
2021/01/19 01:22:54;;;;;;;;;;;;;;;;;;5069530;28;1408;-64
2021/01/19 01:25:19;;;;;;;;;;;;;;;;;;5068175;28;1416;-65
2021/01/19 01:27:45;;;;;;;;;;;;;;;;;;5066894;28;1565;-65
2021/01/19 01:30:12;;;;;;;;;;;;;;;;;;5067523;28;1890;-66
2021/01/19 01:32:38;;;;;;;;;;;;;;;;;;5068345;28;1590;-64
2021/01/19 01:35:04;;;;;;;;;;;;;;;;;;5069397;28;1568;-65
2021/01/19 01:37:29;;;;;;;;;;;;;;;;;;5069011;28;1074;-64
2021/01/19 01:39:54;;;;;;;;;;;;;;;;;;5069354;28;854;-65
2021/01/19 01:42:21;;;;;;;;;;;;;;;;;;5070453;28;1490;-65
2021/01/19 01:44:50;;;;;;;;;;;;;;;;;;5068736;28;1439;-64
2021/01/19 01:47:27;;;;;;;;;;;;;;;;;;5069049;28;2345;-64
2021/01/19 01:49:52;;;;;;;;;;;;;;;;;;5081638;28;1379;-65
2021/01/19 01:52:19;;;;;;;;;;;;;;;;;;5067103;28;1956;-65
2021/01/19 01:54:46;;;;;;;;;;;;;;;;;;5070336;28;1547;-66
2021/01/19 01:57:12;;;;;;;;;;;;;;;;;;5068406;28;1435;-65
2021/01/19 01:59:38;;;;;;;;;;;;;;;;;;5072492;28;1134;-65
2021/01/19 02:02:07;;;;;;;;;;;;;;;;;;5090807;28;925;-66
2021/01/19 02:04:32;;;;;;;;;;;;;;;;;;5077879;28;1494;-65
2021/01/19 02:06:59;;;;;;;;;;;;;;;;;;5075154;28;1713;-67
2021/01/19 02:09:27;;;;;;;;;;;;;;;;;;5067352;28;1510;-67
2021/01/19 02:11:56;;;;;;;;;;;;;;;;;;5068138;28;1906;-66
2021/01/19 02:14:29;;;;;;;;;;;;;;;;;;5069301;28;909;-67
2021/01/19 02:17:09;;;;;;;;;;;;;;;;;;5069614;28;1036;-67
2021/01/19 02:19:54;;;;;;;;;;;;;;;;;;5067652;28;1864;-67
2021/01/19 02:22:19;;;;;;;;;;;;;;;;;;5068703;28;822;-67
2021/01/19 02:24:52;;;;;;;;;;;;;;;;;;5068831;28;870;-67
2021/01/19 02:27:20;;;;;;;;;;;;;;;;;;5067241;28;1498;-64
2021/01/19 02:30:01;;;;;;;;;;;;;;;;;;5067268;28;1361;-64
2021/01/19 02:32:32;;;;;;;;;;;;;;;;;;5065606;28;1483;-63
2021/01/19 02:35:02;;;;;;;;;;;;;;;;;;5067621;28;1507;-64
2021/01/19 02:37:35;;;;;;;;;;;;;;;;;;5066769;28;1506;-67
2021/01/19 02:40:06;;;;;;;;;;;;;;;;;;5066838;28;1404;-64
2021/01/19 02:42:39;;;;;;;;;;;;;;;;;;5075483;28;1625;-64
2021/01/19 02:45:05;;;;;;;;;;;;;;;;;;5068486;28;914;-65
2021/01/19 02:47:31;;;;;;;;;;;;;;;;;;5066878;28;1177;-64
2021/01/19 02:49:56;;;;;;;;;;;;;;;;;;5067667;28;940;-64
2021/01/19 02:52:22;;;;;;;;;;;;;;;;;;5080494;28;1898;-66
2021/01/19 02:54:47;;;;;;;;;;;;;;;;;;5066460;28;1349;-65
2021/01/19 02:57:19;;;;;;;;;;;;;;;;;;5066137;28;1460;-64
2021/01/19 03:00:06;;;;;;;;;;;;;;;;;;5071941;28;1407;-64
2021/01/19 03:02:33;;;;;;;;;;;;;;;;;;5073219;28;1753;-64
2021/01/19 03:04:59;;;;;;;;;;;;;;;;;;5065214;28;1590;-65
2021/01/19 03:07:27;;;;;;;;;;;;;;;;;;5065291;28;1545;-65
2021/01/19 03:09:53;;;;;;;;;;;;;;;;;;5066692;28;1400;-65
2021/01/19 03:12:19;;;;;;;;;;;;;;;;;;5064435;28;1957;-64
2021/01/19 03:14:44;;;;;;;;;;;;;;;;;;5066440;28;1301;-65
2021/01/19 03:17:11;;;;;;;;;;;;;;;;;;5071649;28;1369;-66
2021/01/19 03:19:43;;;;;;;;;;;;;;;;;;5066531;28;1597;-65
2021/01/19 03:22:09;;;;;;;;;;;;;;;;;;5067397;28;1574;-68
2021/01/19 03:24:35;;;;;;;;;;;;;;;;;;5078692;28;1599;-65
2021/01/19 03:27:00;;;;;;;;;;;;;;;;;;5087417;28;1368;-63
2021/01/19 03:29:25;;;;;;;;;;;;;;;;;;5066775;28;1482;-64
2021/01/19 03:31:51;;;;;;;;;;;;;;;;;;5065801;28;1966;-64
2021/01/19 03:34:16;;;;;;;;;;;;;;;;;;5065250;28;1572;-64
2021/01/19 03:36:42;;;;;;;;;;;;;;;;;;5066758;28;894;-65
2021/01/19 03:39:07;;;;;;;;;;;;;;;;;;5067606;28;929;-64
2021/01/19 03:41:33;;;;;;;;;;;;;;;;;;5068907;28;1080;-65
2021/01/19 03:43:58;;;;;;;;;;;;;;;;;;5066040;28;1502;-64
2021/01/19 03:46:24;;;;;;;;;;;;;;;;;;5064679;28;1499;-64
2021/01/19 03:48:49;;;;;;;;;;;;;;;;;;5063035;28;1730;-64
2021/01/19 03:51:15;;;;;;;;;;;;;;;;;;5063718;28;1893;-65
2021/01/19 03:53:40;;;;;;;;;;;;;;;;;;5064829;28;1533;-66
2021/01/19 03:56:05;;;;;;;;;;;;;;;;;;5067427;28;906;-63
2021/01/19 03:58:31;;;;;;;;;;;;;;;;;;5067195;28;822;-65
2021/01/19 04:00:56;;;;;;;;;;;;;;;;;;5080761;28;1547;-67
2021/01/19 04:03:22;;;;;;;;;;;;;;;;;;5067539;28;1587;-66
2021/01/19 04:05:47;;;;;;;;;;;;;;;;;;5064963;28;1451;-66
2021/01/19 04:08:12;;;;;;;;;;;;;;;;;;5066795;28;1462;-66
2021/01/19 04:10:38;;;;;;;;;;;;;;;;;;5065784;28;2003;-66
2021/01/19 04:13:03;;;;;;;;;;;;;;;;;;5067174;28;1269;-65
2021/01/19 04:15:28;;;;;;;;;;;;;;;;;;5064137;28;1424;-65
2021/01/19 04:17:54;;;;;;;;;;;;;;;;;;5065050;28;1388;-64
2021/01/19 04:20:19;;;;;;;;;;;;;;;;;;5069002;28;1454;-65
2021/01/19 04:22:44;;;;;;;;;;;;;;;;;;5069675;28;1595;-67
2021/01/19 04:25:10;;;;;;;;;;;;;;;;;;5068746;28;1292;-65
2021/01/19 04:27:35;;;;;;;;;;;;;;;;;;5070892;28;919;-65
2021/01/19 04:30:07;;;;;;;;;;;;;;;;;;5072263;28;1495;-64
2021/01/19 04:32:33;;;;;;;;;;;;;;;;;;5082341;28;1599;-64
2021/01/19 04:34:59;;;;;;;;;;;;;;;;;;5069233;28;1467;-66
2021/01/19 04:37:24;;;;;;;;;;;;;;;;;;5069990;28;1250;-64
2021/01/19 04:39:49;;;;;;;;;;;;;;;;;;5068423;28;1466;-66
2021/01/19 04:42:18;;;;;;;;;;;;;;;;;;5075924;28;1550;-65
2021/01/19 04:44:43;;;;;;;;;;;;;;;;;;5077228;28;1451;-65
2021/01/19 04:47:09;;;;;;;;;;;;;;;;;;5069797;28;819;-67
2021/01/19 04:49:35;;;;;;;;;;;;;;;;;;5070663;28;1159;-65
2021/01/19 04:52:03;;;;;;;;;;;;;;;;;;5070075;28;1922;-64
2021/01/19 04:54:33;;;;;;;;;;;;;;;;;;5069183;28;1628;-65
2021/01/19 04:57:01;;;;;;;;;;;;;;;;;;5067373;28;1476;-65
2021/01/19 04:59:37;;;;;;;;;;;;;;;;;;5069130;28;1536;-66
2021/01/19 05:02:29;;;;;;;;;;;;;;;;;;5069603;28;1576;-65
2021/01/19 05:05:13;;;;;;;;;;;;;;;;;;5065254;28;1647;-66
2021/01/19 05:07:50;;;;;;;;;;;;;;;;;;5068004;28;1549;-65
2021/01/19 05:10:21;;;;;;;;;;;;;;;;;;5068320;28;1906;-68
2021/01/19 05:12:51;;;;;;;;;;;;;;;;;;5068727;28;1651;-67
2021/01/19 05:15:16;;;;;;;;;;;;;;;;;;5068776;28;1498;-66
2021/01/19 05:17:42;;;;;;;;;;;;;;;;;;5068384;28;1718;-66
2021/01/19 05:20:08;;;;;;;;;;;;;;;;;;5069062;28;1396;-65
2021/01/19 05:22:34;;;;;;;;;;;;;;;;;;5069345;28;1550;-66
2021/01/19 05:24:59;;;;;;;;;;;;;;;;;;5082070;28;1432;-65
2021/01/19 05:27:25;;;;;;;;;;;;;;;;;;5084897;28;1582;-66
2021/01/19 05:30:06;;;;;;;;;;;;;;;;;;5068820;28;1579;-67
2021/01/19 05:32:35;;;;;;;;;;;;;;;;;;5068865;28;1301;-69
2021/01/19 05:35:10;;;;;;;;;;;;;;;;;;5070281;28;1470;-67
2021/01/19 05:37:36;;;;;;;;;;;;;;;;;;5079865;28;1605;-69
2021/01/19 05:40:05;;;;;;;;;;;;;;;;;;5066415;28;1586;-66
2021/01/19 05:42:31;;;;;;;;;;;;;;;;;;5067538;28;1356;-68
2021/01/19 05:45:05;;;;;;;;;;;;;;;;;;5067429;28;1431;-69
2021/01/19 05:47:31;;;;;;;;;;;;;;;;;;5067708;28;1385;-69
2021/01/19 05:49:59;;;;;;;;;;;;;;;;;;5067001;28;1592;-66
2021/01/19 05:52:29;;;;;;;;;;;;;;;;;;5067451;28;1882;-69
2021/01/19 05:54:56;;;;;;;;;;;;;;;;;;5068207;28;838;-70
2021/01/19 05:57:22;;;;;;;;;;;;;;;;;;5068650;28;1423;-69
2021/01/19 05:59:52;;;;;;;;;;;;;;;;;;5066765;28;1423;-70
2021/01/19 06:02:18;;;;;;;;;;;;;;;;;;5084331;28;1451;-65
2021/01/19 06:04:48;;;;;;;;;;;;;;;;;;5075333;28;1293;-64
2021/01/19 06:07:14;;;;;;;;;;;;;;;;;;5067493;28;1392;-64
2021/01/19 06:09:41;;;;;;;;;;;;;;;;;;5067130;28;1566;-65
2021/01/19 06:12:06;;;;;;;;;;;;;;;;;;5067859;28;1992;-63
2021/01/19 06:14:32;;;;;;;;;;;;;;;;;;5068520;28;1605;-66
2021/01/19 06:17:07;;;;;;;;;;;;;;;;;;5068546;28;857;-64
2021/01/19 06:19:32;;;;;;;;;;;;;;;;;;5068531;28;810;-64
2021/01/19 06:21:58;;;;;;;;;;;;;;;;;;5067911;28;1627;-65
2021/01/19 06:24:32;;;;;;;;;;;;;;;;;;5067459;28;1669;-64
2021/01/19 06:26:58;;;;;;;;;;;;;;;;;;5065953;28;1447;-68
2021/01/19 06:29:24;;;;;;;;;;;;;;;;;;5065952;28;1498;-64
2021/01/19 06:31:50;;;;;;;;;;;;;;;;;;5067505;28;1890;-65
2021/01/19 06:34:15;;;;;;;;;;;;;;;;;;5090291;28;1660;-65
2021/01/19 06:36:40;;;;;;;;;;;;;;;;;;5067459;28;1491;-64
2021/01/19 06:39:06;;;;;;;;;;;;;;;;;;5069237;28;1637;-65
2021/01/19 06:41:35;;;;;;;;;;;;;;;;;;5067773;28;1723;-62
2021/01/19 06:44:06;;;;;;;;;;;;;;;;;;5067650;28;1356;-64
2021/01/19 06:46:36;;;;;;;;;;;;;;;;;;5067872;28;881;-65
2021/01/19 06:49:04;;;;;;;;;;;;;;;;;;5074310;28;1593;-67
2021/01/19 06:51:29;;;;;;;;;;;;;;;;;;5076072;28;1968;-65
2021/01/19 06:54:06;;;;;;;;;;;;;;;;;;5077349;28;1751;-64
2021/01/19 06:56:35;;;;;;;;;;;;;;;;;;5076523;28;1435;-68
2021/01/19 06:59:07;;;;;;;;;;;;;;;;;;5065582;28;1587;-68
2021/01/19 07:01:37;;;;;;;;;;;;;;;;;;5082567;28;1495;-66
2021/01/19 07:04:25;;;;;;;;;;;;;;;;;;5070012;28;1529;-64
2021/01/19 07:06:53;;;;;;;;;;;;;;;;;;5066656;28;1388;-63
2021/01/19 07:09:48;;;;;;;;;;;;;;;;;;5069575;28;1547;-69
2021/01/19 07:12:17;;;;;;;;;;;;;;;;;;5067418;28;1973;-65
2021/01/19 07:14:43;;;;;;;;;;;;;;;;;;5067207;28;1631;-71
2021/01/19 07:17:10;;;;;;;;;;;;;;;;;;5070429;28;1541;-72
2021/01/19 07:19:43;;;;;;;;;;;;;;;;;;5070626;28;1415;-71
2021/01/19 07:22:09;;;;;;;;;;;;;;;;;;5068415;28;866;-72
2021/01/19 07:24:47;;;;;;;;;;;;;;;;;;5067625;28;850;-72
2021/01/19 07:27:13;;;;;;;;;;;;;;;;;;5065451;28;1510;-72
2021/01/19 07:29:39;;;;;;;;;;;;;;;;;;5082973;28;1451;-71
2021/01/19 07:32:08;;;;;;;;;;;;;;;;;;5072937;28;1966;-72
2021/01/19 07:34:35;;;;;;;;;;;;;;;;;;5067753;28;1568;-72
2021/01/19 07:37:00;;;;;;;;;;;;;;;;;;5076113;28;1518;-73
2021/01/19 07:39:30;;;;;;;;;;;;;;;;;;5069923;28;1632;-73
2021/01/19 07:42:07;;;;;;;;;;;;;;;;;;5070353;28;1570;-73
2021/01/19 07:44:33;;;;;;;;;;;;;;;;;;5072909;28;1452;-73
2021/01/19 07:47:06;;;;;;;;;;;;;;;;;;5065209;28;1559;-72
2021/01/19 07:49:32;;;;;;;;;;;;;;;;;;5067019;28;1617;-73
2021/01/19 07:52:07;;;;;;;;;;;;;;;;;;5065749;28;1902;-73
2021/01/19 07:54:35;;;;;;;;;;;;;;;;;;5069658;28;1485;-73
2021/01/19 07:57:10;;;;;;;;;;;;;;;;;;5069949;28;1455;-73
2021/01/19 07:59:35;;;;;;;;;;;;;;;;;;5081717;28;1474;-74
2021/01/19 08:02:00;;;;;;;;;;;;;;;;;;5070698;28;1353;-74
2021/01/19 08:04:28;;;;;;;;;;;;;;;;;;5069778;28;1419;-73
2021/01/19 08:06:54;;;;;;;;;;;;;;;;;;5070860;28;1428;-74
2021/01/19 08:09:19;;;;;;;;;;;;;;;;;;5072644;28;1568;-74
2021/01/19 08:11:45;;;;;;;;;;;;;;;;;;5069348;28;1906;-74
2021/01/19 08:14:11;;;;;;;;;;;;;;;;;;5069746;28;1596;-74
2021/01/19 08:16:37;;;;;;;;;;;;;;;;;;5070644;28;1415;-74
2021/01/19 08:19:06;;;;;;;;;;;;;;;;;;5070350;28;1526;-73
2021/01/19 08:21:51;;;;;;;;;;;;;;;;;;5068876;28;6333;-74
2021/01/19 08:24:19;;;;;;;;;;;;;;;;;;5083344;28;1598;-74
2021/01/19 08:26:44;;;;;;;;;;;;;;;;;;5088449;28;1631;-74
2021/01/19 08:29:10;;;;;;;;;;;;;;;;;;5076641;28;1856;-73
2021/01/19 08:31:38;;;;;;;;;;;;;;;;;;5077540;28;1914;-74
2021/01/19 08:34:06;;;;;;;;;;;;;;;;;;5036684;28;10737;-73
2021/01/19 08:36:32;;;;;;;;;;;;;;;;;;5086773;28;1415;-73
2021/01/19 08:38:58;;;;;;;;;;;;;;;;;;5087896;28;1312;-74
2021/01/19 08:41:24;;;;;;;;;;;;;;;;;;5075278;28;1530;-68
2021/01/19 08:43:52;;;;;;;;;;;;;;;;;;5081409;28;1356;-69
2021/01/19 08:46:18;;;;;;;;;;;;;;;;;;5070013;28;1423;-69
2021/01/19 08:48:43;;;;;;;;;;;;;;;;;;5070200;28;1718;-68
2021/01/19 08:51:18;;;;;;;;;;;;;;;;;;5069235;28;1980;-68
2021/01/19 08:53:43;;;;;;;;;;;;;;;;;;5070011;28;1516;-68
2021/01/19 08:56:16;;;;;;;;;;;;;;;;;;5070087;28;1436;-68
2021/01/19 08:58:41;;;;;;;;;;;;;;;;;;5075795;28;1504;-68
2021/01/19 09:01:06;;;;;;;;;;;;;;;;;;5082785;28;1470;-67
2021/01/19 09:03:32;;;;;;;;;;;;;;;;;;5076930;28;1479;-67
2021/01/19 09:06:01;;;;;;;;;;;;;;;;;;5078056;28;1781;-69
2021/01/19 09:08:28;;;;;;;;;;;;;;;;;;5083989;28;1625;-67
2021/01/19 09:11:00;;;;;;;;;;;;;;;;;;5083277;28;1965;-69
2021/01/19 09:13:26;;;;;;;;;;;;;;;;;;5082144;28;1701;-66
2021/01/19 09:15:51;;;;;;;;;;;;;;;;;;5081346;28;1064;-65
2021/01/19 09:18:18;;;;;;;;;;;;;;;;;;5084131;28;1423;-69
2021/01/19 09:20:43;;;;;;;;;;;;;;;;;;5073067;28;1344;-69
2021/01/19 09:23:15;;;;;;;;;;;;;;;;;;5071441;28;1224;-66
2021/01/19 09:25:44;;;;;;;;;;;;;;;;;;5085275;28;2004;-73
2021/01/19 09:28:10;;;;;;;;;;;;;;;;;;5084497;28;933;-67
2021/01/19 09:30:36;;;;;;;;;;;;;;;;;;5078743;28;1910;-64
2021/01/19 09:33:02;;;;;;;;;;;;;;;;;;5074629;28;1550;-65
2021/01/19 09:35:28;;;;;;;;;;;;;;;;;;5068656;28;849;-67
2021/01/19 09:37:53;;;;;;;;;;;;;;;;;;5073458;28;1605;-65
2021/01/19 09:40:28;;;;;;;;;;;;;;;;;;5081409;28;1233;-66
2021/01/19 09:42:53;;;;;;;;;;;;;;;;;;5086736;28;1360;-64
2021/01/19 09:45:18;;;;;;;;;;;;;;;;;;5088833;28;909;-65
2021/01/19 09:47:44;;;;;;;;;;;;;;;;;;5071290;28;1154;-65
2021/01/19 09:50:10;;;;;;;;;;;;;;;;;;5074672;28;1231;-65
2021/01/19 09:52:35;;;;;;;;;;;;;;;;;;5077162;28;1905;-64
2021/01/19 09:55:05;;;;;;;;;;;;;;;;;;5078054;28;1372;-65
2021/01/19 09:57:30;;;;;;;;;;;;;;;;;;5079399;28;1491;-65
2021/01/19 09:59:55;;;;;;;;;;;;;;;;;;5069883;28;1528;-64
2021/01/19 10:02:26;;;;;;;;;;;;;;;;;;5071198;28;1423;-66
2021/01/19 10:05:02;;;;;;;;;;;;;;;;;;5066299;28;1572;-65
2021/01/19 10:07:28;;;;;;;;;;;;;;;;;;5077031;28;1495;-66
2021/01/19 10:10:04;;;;;;;;;;;;;;;;;;5068213;28;1400;-65
2021/01/19 10:12:30;;;;;;;;;;;;;;;;;;5066610;28;1906;-66
2021/01/19 10:14:55;;;;;;;;;;;;;;;;;;5073973;28;1470;-66
2021/01/19 10:17:30;;;;;;;;;;;;;;;;;;5083348;28;1431;-64
2021/01/19 10:20:04;;;;;;;;;;;;;;;;;;5071946;28;1463;-65
2021/01/19 10:22:30;;;;;;;;;;;;;;;;;;5069529;28;1595;-65
2021/01/19 10:24:55;;;;;;;;;;;;;;;;;;5073298;28;1436;-65
2021/01/19 10:27:22;;;;;;;;;;;;;;;;;;5078335;28;1709;-65
2021/01/19 10:29:49;;;;;;;;;;;;;;;;;;5068137;28;1495;-66
2021/01/19 10:32:16;;;;;;;;;;;;;;;;;;5077450;28;1889;-66
2021/01/19 10:34:45;;;;;;;;;;;;;;;;;;5073046;28;1575;-65
2021/01/19 10:37:11;;;;;;;;;;;;;;;;;;5069079;28;1595;-66
2021/01/19 10:39:50;;;;;;;;;;;;;;;;;;5074509;28;1541;-66
2021/01/19 10:42:33;;;;;;;;;;;;;;;;;;5077085;28;1414;-66
2021/01/19 10:44:59;;;;;;;;;;;;;;;;;;5073394;28;1904;-65
2021/01/19 10:47:25;;;;;;;;;;;;;;;;;;5077133;28;1498;-65
2021/01/19 10:49:51;;;;;;;;;;;;;;;;;;5072842;28;1582;-66
2021/01/19 10:52:16;;;;;;;;;;;;;;;;;;5074615;28;1960;-65
2021/01/19 10:54:42;;;;;;;;;;;;;;;;;;5074980;28;1452;-66
2021/01/19 10:57:08;;;;;;;;;;;;;;;;;;5077874;28;1136;-66
2021/01/19 10:59:34;;;;;;;;;;;;;;;;;;5078822;28;1175;-65
2021/01/19 11:02:00;;;;;;;;;;;;;;;;;;5075127;28;1486;-65
2021/01/19 11:04:25;;;;;;;;;;;;;;;;;;5081035;28;1404;-65
2021/01/19 11:06:51;;;;;;;;;;;;;;;;;;5076737;28;1427;-64
2021/01/19 11:09:17;;;;;;;;;;;;;;;;;;5081243;28;1338;-66
2021/01/19 11:11:42;;;;;;;;;;;;;;;;;;5070638;28;1901;-67
2021/01/19 11:14:09;;;;;;;;;;;;;;;;;;5078378;28;1680;-69
2021/01/19 11:16:35;;;;;;;;;;;;;;;;;;5065671;28;1428;-66
2021/01/19 11:19:01;;;;;;;;;;;;;;;;;;5064711;28;1567;-66
2021/01/19 11:21:27;;;;;;;;;;;;;;;;;;5080698;28;1455;-66
2021/01/19 11:23:53;;;;;;;;;;;;;;;;;;5069153;28;1301;-66
2021/01/19 11:26:18;;;;;;;;;;;;;;;;;;5066701;28;890;-66
2021/01/19 11:28:43;;;;;;;;;;;;;;;;;;5069981;28;898;-67
2021/01/19 11:31:09;;;;;;;;;;;;;;;;;;5072187;28;1909;-66
2021/01/19 11:33:34;;;;;;;;;;;;;;;;;;5072776;28;1562;-66
2021/01/19 11:35:59;;;;;;;;;;;;;;;;;;5070112;28;1423;-66
2021/01/19 11:38:25;;;;;;;;;;;;;;;;;;5068451;28;1435;-66
2021/01/19 11:40:50;;;;;;;;;;;;;;;;;;5069514;28;1455;-66
2021/01/19 11:43:16;;;;;;;;;;;;;;;;;;5085673;28;1483;-66
2021/01/19 11:45:41;;;;;;;;;;;;;;;;;;5081821;28;1434;-66
2021/01/19 11:48:06;;;;;;;;;;;;;;;;;;5070822;28;1602;-64
2021/01/19 11:50:32;;;;;;;;;;;;;;;;;;5071468;28;1882;-66
2021/01/19 11:52:57;;;;;;;;;;;;;;;;;;5070890;28;1011;-66
2021/01/19 11:55:22;;;;;;;;;;;;;;;;;;5072503;28;1705;-66
2021/01/19 11:57:48;;;;;;;;;;;;;;;;;;5072763;28;1424;-65
2021/01/19 12:00:13;;;;;;;;;;;;;;;;;;5074782;28;1451;-65
2021/01/19 12:02:39;;;;;;;;;;;;;;;;;;5094873;28;1546;-66
2021/01/19 12:05:04;;;;;;;;;;;;;;;;;;5075894;28;1692;-64
2021/01/19 12:07:30;;;;;;;;;;;;;;;;;;5080386;28;1921;-65
2021/01/19 12:09:55;;;;;;;;;;;;;;;;;;5084149;28;1144;-65
2021/01/19 12:12:21;;;;;;;;;;;;;;;;;;5087211;28;1984;-65
2021/01/19 12:14:47;;;;;;;;;;;;;;;;;;5080258;28;1127;-65
2021/01/19 12:17:13;;;;;;;;;;;;;;;;;;5083519;28;1072;-65
2021/01/19 12:19:40;;;;;;;;;;;;;;;;;;5093389;28;1004;-64
2021/01/19 12:22:06;;;;;;;;;;;;;;;;;;5081505;28;1729;-65
2021/01/19 12:24:34;;;;;;;;;;;;;;;;;;5074932;28;1013;-65
2021/01/19 12:27:00;;;;;;;;;;;;;;;;;;5091089;28;1020;-65
2021/01/19 12:29:25;;;;;;;;;;;;;;;;;;5090800;28;1075;-65
2021/01/19 12:31:51;;;;;;;;;;;;;;;;;;5084218;28;1893;-65
2021/01/19 12:34:18;;;;;;;;;;;;;;;;;;5077139;28;1152;-65
2021/01/19 12:36:44;;;;;;;;;;;;;;;;;;5076999;28;1044;-65
2021/01/19 12:39:09;;;;;;;;;;;;;;;;;;5083624;28;1036;-65
2021/01/19 12:41:35;;;;;;;;;;;;;;;;;;5075106;28;1087;-65
2021/01/19 12:44:01;;;;;;;;;;;;;;;;;;5080367;28;1230;-65
2021/01/19 12:46:26;;;;;;;;;;;;;;;;;;5079727;28;1104;-65
2021/01/19 12:48:52;;;;;;;;;;;;;;;;;;5090661;28;1310;-65
2021/01/19 12:51:18;;;;;;;;;;;;;;;;;;5089682;28;1897;-64
2021/01/19 12:53:45;;;;;;;;;;;;;;;;;;5089770;28;1107;-64
2021/01/19 12:56:11;;;;;;;;;;;;;;;;;;5091190;28;1001;-64
2021/01/19 12:58:36;;;;;;;;;;;;;;;;;;5091814;28;1072;-64
2021/01/19 13:01:02;;;;;;;;;;;;;;;;;;5087514;28;2396;-64
2021/01/19 13:03:28;;;;;;;;;;;;;;;;;;5087685;28;1040;-64
2021/01/19 13:05:54;;;;;;;;;;;;;;;;;;5089710;28;1080;-64
2021/01/19 13:08:22;;;;;;;;;;;;;;;;;;5088404;28;1020;-65
2021/01/19 13:10:47;;;;;;;;;;;;;;;;;;5080022;28;1910;-65
2021/01/19 13:13:13;;;;;;;;;;;;;;;;;;5083383;28;1530;-66
2021/01/19 13:15:38;;;;;;;;;;;;;;;;;;5077547;28;977;-66
2021/01/19 13:18:03;;;;;;;;;;;;;;;;;;5088160;28;2415;-65
2021/01/19 13:20:29;;;;;;;;;;;;;;;;;;5082824;28;1431;-65
2021/01/19 13:22:54;;;;;;;;;;;;;;;;;;5089273;28;1005;-64
2021/01/19 13:25:20;;;;;;;;;;;;;;;;;;5086488;28;965;-65
2021/01/19 13:27:45;;;;;;;;;;;;;;;;;;5076608;28;1155;-65
2021/01/19 13:30:11;;;;;;;;;;;;;;;;;;5073796;28;1386;-66
2021/01/19 13:32:37;;;;;;;;;;;;;;;;;;5078771;28;1901;-65
2021/01/19 13:35:03;;;;;;;;;;;;;;;;;;5080285;28;1162;-65
2021/01/19 13:37:28;;;;;;;;;;;;;;;;;;5074723;28;1144;-65
2021/01/19 13:39:54;;;;;;;;;;;;;;;;;;5075088;28;1120;-65
2021/01/19 13:42:20;;;;;;;;;;;;;;;;;;5087735;28;996;-65
2021/01/19 13:44:46;;;;;;;;;;;;;;;;;;5089597;28;1052;-65
2021/01/19 13:47:11;;;;;;;;;;;;;;;;;;5089962;28;1143;-65
2021/01/19 13:49:37;;;;;;;;;;;;;;;;;;5090079;28;1127;-64
2021/01/19 13:52:02;;;;;;;;;;;;;;;;;;5088551;28;1921;-65
2021/01/19 13:54:28;;;;;;;;;;;;;;;;;;5089431;28;1004;-65
2021/01/19 13:56:56;;;;;;;;;;;;;;;;;;5088988;28;989;-65
2021/01/19 13:59:21;;;;;;;;;;;;;;;;;;5088978;28;1056;-65
2021/01/19 14:01:49;;;;;;;;;;;;;;;;;;5089168;28;1008;-65
2021/01/19 14:04:14;;;;;;;;;;;;;;;;;;5089426;28;1138;-65
2021/01/19 14:06:42;;;;;;;;;;;;;;;;;;5076194;28;2180;-65
2021/01/19 14:09:08;;;;;;;;;;;;;;;;;;5084732;28;1606;-65
2021/01/19 14:11:33;;;;;;;;;;;;;;;;;;5079543;28;1989;-65
2021/01/19 14:13:58;;;;;;;;;;;;;;;;;;5074059;28;1579;-65
2021/01/19 14:16:25;;;;;;;;;;;;;;;;;;5084936;28;1563;-65
2021/01/19 14:18:50;;;;;;;;;;;;;;;;;;5072498;28;1055;-65
2021/01/19 14:21:19;;;;;;;;;;;;;;;;;;5081567;28;1064;-65
2021/01/19 14:23:45;;;;;;;;;;;;;;;;;;5089948;28;1040;-64
2021/01/19 14:26:19;;;;;;;;;;;;;;;;;;5089528;28;1060;-66
2021/01/19 14:28:45;;;;;;;;;;;;;;;;;;5089851;28;1090;-66
2021/01/19 14:31:10;;;;;;;;;;;;;;;;;;5089662;28;1894;-65
2021/01/19 14:33:35;;;;;;;;;;;;;;;;;;5089332;28;976;-65
2021/01/19 14:36:01;;;;;;;;;;;;;;;;;;5076138;28;1666;-64
2021/01/19 14:38:26;;;;;;;;;;;;;;;;;;5074424;28;1725;-65
2021/01/19 14:40:51;;;;;;;;;;;;;;;;;;5075970;28;1495;-66
2021/01/19 14:43:17;;;;;;;;;;;;;;;;;;5074076;28;1591;-65
2021/01/19 14:45:43;;;;;;;;;;;;;;;;;;5079825;28;1026;-66
2021/01/19 14:48:08;;;;;;;;;;;;;;;;;;5074584;28;1448;-66
2021/01/19 14:50:34;;;;;;;;;;;;;;;;;;5083426;28;1972;-66
2021/01/19 14:52:59;;;;;;;;;;;;;;;;;;5088273;28;1080;-66
2021/01/19 14:55:25;;;;;;;;;;;;;;;;;;5087399;28;1195;-66
2021/01/19 14:57:50;;;;;;;;;;;;;;;;;;5088850;28;1107;-66
2021/01/19 15:00:16;;;;;;;;;;;;;;;;;;5082222;28;984;-66
2021/01/19 15:02:41;;;;;;;;;;;;;;;;;;5087605;28;1068;-66
2021/01/19 15:05:07;;;;;;;;;;;;;;;;;;5089688;28;1068;-65
2021/01/19 15:07:33;;;;;;;;;;;;;;;;;;5087960;28;1071;-66
2021/01/19 15:09:59;;;;;;;;;;;;;;;;;;5073302;28;1068;-65
2021/01/19 15:12:25;;;;;;;;;;;;;;;;;;5085636;28;1914;-66
2021/01/19 15:14:50;;;;;;;;;;;;;;;;;;5074717;28;1571;-66
2021/01/19 15:17:20;;;;;;;;;;;;;;;;;;5077938;28;1055;-66
2021/01/19 15:19:46;;;;;;;;;;;;;;;;;;5074820;28;1157;-66
2021/01/19 15:22:11;;;;;;;;;;;;;;;;;;5074670;28;1494;-66
2021/01/19 15:24:38;;;;;;;;;;;;;;;;;;5077258;28;1495;-65
2021/01/19 15:27:03;;;;;;;;;;;;;;;;;;5079468;28;956;-66
2021/01/19 15:29:29;;;;;;;;;;;;;;;;;;5087849;28;960;-66
2021/01/19 15:31:54;;;;;;;;;;;;;;;;;;5088051;28;2011;-65
2021/01/19 15:34:23;;;;;;;;;;;;;;;;;;5087830;28;1182;-65
2021/01/19 15:36:49;;;;;;;;;;;;;;;;;;5084776;28;1694;-66
2021/01/19 15:39:14;;;;;;;;;;;;;;;;;;5086805;28;1440;-66
2021/01/19 15:41:40;;;;;;;;;;;;;;;;;;5088423;28;1456;-66
2021/01/19 15:44:06;;;;;;;;;;;;;;;;;;5087572;28;1534;-66
2021/01/19 15:46:32;;;;;;;;;;;;;;;;;;5087483;28;1008;-66
2021/01/19 15:48:58;;;;;;;;;;;;;;;;;;5087821;28;969;-65
2021/01/19 15:51:24;;;;;;;;;;;;;;;;;;5087346;28;1906;-66
2021/01/19 15:53:50;;;;;;;;;;;;;;;;;;5086853;28;1595;-66
2021/01/19 15:56:25;;;;;;;;;;;;;;;;;;5087812;28;949;-66
2021/01/19 15:58:51;;;;;;;;;;;;;;;;;;5088022;28;1004;-66
2021/01/19 16:01:16;;;;;;;;;;;;;;;;;;5087385;28;980;-66
2021/01/19 16:03:42;;;;;;;;;;;;;;;;;;5087638;28;1147;-66
2021/01/19 16:06:07;;;;;;;;;;;;;;;;;;5087853;28;1030;-65
2021/01/19 16:08:33;;;;;;;;;;;;;;;;;;5087047;28;1098;-65
2021/01/19 16:10:58;;;;;;;;;;;;;;;;;;5086969;28;1902;-66
2021/01/19 16:13:23;;;;;;;;;;;;;;;;;;5087221;28;1023;-66
2021/01/19 16:15:49;;;;;;;;;;;;;;;;;;5077825;28;1020;-66
2021/01/19 16:18:18;;;;;;;;;;;;;;;;;;5091202;28;957;-66
2021/01/19 16:20:44;;;;;;;;;;;;;;;;;;5091003;28;980;-66
2021/01/19 16:23:10;;;;;;;;;;;;;;;;;;5091668;28;976;-65
2021/01/19 16:25:35;;;;;;;;;;;;;;;;;;5088931;28;1103;-65
2021/01/19 16:28:04;;;;;;;;;;;;;;;;;;5089300;28;989;-66
2021/01/19 16:30:31;;;;;;;;;;;;;;;;;;5079822;28;996;-65
2021/01/19 16:32:56;;;;;;;;;;;;;;;;;;5080108;28;1886;-65
2021/01/19 16:35:23;;;;;;;;;;;;;;;;;;5088575;28;1071;-65
2021/01/19 16:37:48;;;;;;;;;;;;;;;;;;5092430;28;1194;-65
2021/01/19 16:40:14;;;;;;;;;;;;;;;;;;5090777;28;1510;-65
2021/01/19 16:42:39;;;;;;;;;;;;;;;;;;5084350;28;1546;-66
2021/01/19 16:45:06;;;;;;;;;;;;;;;;;;5085350;28;1575;-65
2021/01/19 16:47:32;;;;;;;;;;;;;;;;;;5087762;28;1685;-66
2021/01/19 16:49:57;;;;;;;;;;;;;;;;;;5086772;28;2290;-67
2021/01/19 16:52:23;;;;;;;;;;;;;;;;;;5082056;28;1957;-67
2021/01/19 16:54:48;;;;;;;;;;;;;;;;;;5073398;28;1738;-67
2021/01/19 16:57:14;;;;;;;;;;;;;;;;;;5072961;28;1412;-67
2021/01/19 16:59:39;;;;;;;;;;;;;;;;;;5071953;28;1182;-67
2021/01/19 17:02:04;;;;;;;;;;;;;;;;;;5081124;28;1131;-67
2021/01/19 17:04:30;;;;;;;;;;;;;;;;;;5089541;28;1068;-67